Time;durP1;ratioP1;P1;durP2;ratioP2;P2;SDS_P1;SDS_P2;PMS_P1;PMS_P2;Temp;Humidity;BMP_temperature;BMP_pressure;BME280_temperature;BME280_humidity;BME280_pressure;Samples;Min_cycle;Max_cycle;Signal;HPM_P1;HPM_P2
2022/07/07 00:02:05;;;;;;;5.10;4.70;;;13.90;15.40;;;;;;5071901;28;20202;-70
2022/07/07 00:04:31;;;;;;;4.60;4.30;;;13.90;15.50;;;;;;5070402;28;20177;-70
2022/07/07 00:06:57;;;;;;;6.13;5.63;;;13.90;15.50;;;;;;5071545;28;20177;-69
2022/07/07 00:09:23;;;;;;;5.10;4.80;;;13.90;15.60;;;;;;5071696;28;20177;-69
2022/07/07 00:11:48;;;;;;;4.60;4.30;;;13.90;15.60;;;;;;5071566;28;20178;-70
2022/07/07 00:14:14;;;;;;;5.00;4.57;;;13.90;15.50;;;;;;5070348;28;20409;-69
2022/07/07 00:16:39;;;;;;;4.70;4.40;;;13.90;15.40;;;;;;5071269;28;20178;-68
2022/07/07 00:19:05;;;;;;;4.50;4.30;;;13.80;15.30;;;;;;5070767;28;20225;-68
2022/07/07 00:21:31;;;;;;;4.93;4.63;;;13.70;15.50;;;;;;5070175;28;20204;-69
2022/07/07 00:23:57;;;;;;;4.47;4.17;;;13.70;15.60;;;;;;5071362;28;20171;-69
2022/07/07 00:26:22;;;;;;;4.73;4.33;;;13.70;16.00;;;;;;5070178;28;20973;-69
2022/07/07 00:28:49;;;;;;;5.30;4.23;;;13.70;15.90;;;;;;5070886;28;20436;-69
2022/07/07 00:31:15;;;;;;;4.97;4.57;;;13.70;15.90;;;;;;5071313;28;20175;-69
2022/07/07 00:33:41;;;;;;;4.80;4.40;;;13.70;15.90;;;;;;5071241;28;20830;-69
2022/07/07 00:36:07;;;;;;;5.20;4.50;;;13.60;16.40;;;;;;5071203;28;20422;-69
2022/07/07 00:38:34;;;;;;;6.83;4.10;;;13.70;16.40;;;;;;5070907;28;20444;-68
2022/07/07 00:41:00;;;;;;;4.13;3.83;;;13.60;17.10;;;;;;5071028;28;20456;-68
2022/07/07 00:43:26;;;;;;;4.53;4.07;;;13.60;16.50;;;;;;5071190;28;20417;-69
2022/07/07 00:45:51;;;;;;;4.53;4.23;;;13.70;15.90;;;;;;5074230;28;20412;-68
2022/07/07 00:48:21;;;;;;;5.17;4.77;;;13.70;15.60;;;;;;5074197;28;20737;-70
2022/07/07 00:50:47;;;;;;;4.70;4.30;;;13.60;15.60;;;;;;5074595;28;20189;-69
2022/07/07 00:53:13;;;;;;;5.13;4.73;;;13.60;15.80;;;;;;5074697;28;20451;-70
2022/07/07 00:55:40;;;;;;;5.53;5.23;;;13.50;15.60;;;;;;5074511;28;20499;-69
2022/07/07 00:58:06;;;;;;;4.70;4.33;;;13.50;15.60;;;;;;5074046;28;20437;-69
2022/07/07 01:00:32;;;;;;;4.17;3.83;;;13.50;15.60;;;;;;5074410;28;20597;-69
2022/07/07 01:02:57;;;;;;;4.30;3.90;;;13.40;15.80;;;;;;5074378;28;20412;-69
2022/07/07 01:05:24;;;;;;;4.53;3.93;;;13.50;15.80;;;;;;5073076;28;20420;-69
2022/07/07 01:07:51;;;;;;;4.63;4.30;;;13.40;16.00;;;;;;5074298;28;20205;-70
2022/07/07 01:10:17;;;;;;;5.17;4.77;;;13.20;16.30;;;;;;5073978;28;20419;-69
2022/07/07 01:12:43;;;;;;;4.53;4.23;;;13.20;16.30;;;;;;5074588;28;20415;-69
2022/07/07 01:15:11;;;;;;;4.87;4.47;;;13.30;16.30;;;;;;5074134;28;20499;-69
2022/07/07 01:17:37;;;;;;;4.83;4.53;;;13.30;16.30;;;;;;5073974;28;20269;-69
2022/07/07 01:20:05;;;;;;;4.33;4.03;;;13.40;16.20;;;;;;5073509;28;20540;-68
2022/07/07 01:22:35;;;;;;;6.50;4.70;;;13.40;16.10;;;;;;5074051;28;20425;-69
2022/07/07 01:25:01;;;;;;;6.30;5.30;;;13.40;16.40;;;;;;5073902;28;20413;-69
2022/07/07 01:27:27;;;;;;;4.63;4.33;;;13.40;16.40;;;;;;5073863;28;20435;-69
2022/07/07 01:29:55;;;;;;;4.40;4.03;;;13.40;16.40;;;;;;5073502;28;20818;-68
2022/07/07 01:32:22;;;;;;;5.10;4.57;;;13.40;16.10;;;;;;5072553;28;20189;-69
2022/07/07 01:34:49;;;;;;;4.13;3.93;;;13.40;16.10;;;;;;5073857;28;20420;-69
2022/07/07 01:37:16;;;;;;;4.93;4.43;;;13.40;16.10;;;;;;5073645;28;20468;-69
2022/07/07 01:39:42;;;;;;;5.33;4.93;;;13.50;16.00;;;;;;5073268;28;20468;-69
2022/07/07 01:42:09;;;;;;;4.67;4.37;;;13.50;15.80;;;;;;5072424;28;20420;-70
2022/07/07 01:44:38;;;;;;;5.10;4.70;;;13.50;15.80;;;;;;5073646;28;20452;-70
2022/07/07 01:47:05;;;;;;;4.83;4.53;;;13.50;15.50;;;;;;5073490;28;20844;-69
2022/07/07 01:49:32;;;;;;;5.30;5.00;;;13.50;15.30;;;;;;5073181;28;20420;-69
2022/07/07 01:51:58;;;;;;;5.57;5.27;;;13.50;15.60;;;;;;5073423;28;20480;-69
2022/07/07 01:54:25;;;;;;;5.07;4.73;;;13.50;15.30;;;;;;5073396;28;20424;-69
2022/07/07 01:56:51;;;;;;;4.73;4.40;;;13.60;15.40;;;;;;5072663;28;20423;-69
2022/07/07 01:59:17;;;;;;;5.97;5.47;;;13.50;15.40;;;;;;5072906;28;20455;-69
2022/07/07 02:01:43;;;;;;;4.90;4.60;;;13.60;15.10;;;;;;5073286;28;20903;-70
2022/07/07 02:04:08;;;;;;;5.27;4.93;;;13.60;15.30;;;;;;5073260;28;20173;-69
2022/07/07 02:06:34;;;;;;;5.77;5.40;;;13.70;15.40;;;;;;5073133;28;20404;-69
2022/07/07 02:09:00;;;;;;;5.70;5.20;;;13.70;15.30;;;;;;5072570;28;20209;-69
2022/07/07 02:11:29;;;;;;;5.03;4.73;;;13.60;15.40;;;;;;5071860;28;20247;-69
2022/07/07 02:13:55;;;;;;;6.10;5.47;;;13.60;15.60;;;;;;5073066;28;20257;-69
2022/07/07 02:16:22;;;;;;;6.50;6.00;;;13.60;15.50;;;;;;5071727;28;20448;-69
2022/07/07 02:18:53;;;;;;;5.20;4.90;;;13.50;15.70;;;;;;5072456;28;20498;-68
2022/07/07 02:21:20;;;;;;;5.43;5.03;;;13.60;15.60;;;;;;5072900;28;20420;-69
2022/07/07 02:23:47;;;;;;;5.37;5.00;;;13.60;15.60;;;;;;5072861;28;20443;-69
2022/07/07 02:26:13;;;;;;;5.97;5.57;;;13.60;15.70;;;;;;5072845;28;20922;-69
2022/07/07 02:28:40;;;;;;;5.30;4.80;;;13.60;15.70;;;;;;5072289;28;20427;-69
2022/07/07 02:31:06;;;;;;;5.00;4.70;;;13.70;15.40;;;;;;5072536;28;20408;-69
2022/07/07 02:33:31;;;;;;;4.80;4.50;;;13.70;15.40;;;;;;5072472;28;20422;-70
2022/07/07 02:35:57;;;;;;;4.83;4.53;;;13.60;15.60;;;;;;5072617;28;20427;-69
2022/07/07 02:38:24;;;;;;;5.63;4.97;;;13.60;15.60;;;;;;5072156;28;20197;-69
2022/07/07 02:40:50;;;;;;;5.27;4.97;;;13.60;15.80;;;;;;5072441;28;20452;-69
2022/07/07 02:43:17;;;;;;;4.70;4.40;;;13.50;15.90;;;;;;5071174;28;20516;-69
2022/07/07 02:45:44;;;;;;;4.70;4.40;;;13.50;16.00;;;;;;5072381;28;20416;-68
2022/07/07 02:48:12;;;;;;;5.70;5.30;;;13.50;15.80;;;;;;5071879;28;20568;-69
2022/07/07 02:50:39;;;;;;;5.03;4.73;;;13.60;15.80;;;;;;5071182;28;20443;-69
2022/07/07 02:53:05;;;;;;;4.53;4.23;;;13.60;16.00;;;;;;5072316;28;20749;-69
2022/07/07 02:55:31;;;;;;;7.37;4.67;;;13.60;16.00;;;;;;5072371;28;20424;-68
2022/07/07 02:57:58;;;;;;;6.03;5.40;;;13.70;15.90;;;;;;5070622;28;20456;-69
2022/07/07 03:00:25;;;;;;;6.23;5.73;;;13.70;15.80;;;;;;5070893;28;20557;-69
2022/07/07 03:02:51;;;;;;;6.80;5.70;;;13.70;16.50;;;;;;5072292;28;20431;-69
2022/07/07 03:05:17;;;;;;;5.40;5.10;;;13.70;16.20;;;;;;5072143;28;20523;-68
2022/07/07 03:07:43;;;;;;;5.00;4.60;;;13.70;16.50;;;;;;5070756;28;20451;-70
2022/07/07 03:10:09;;;;;;;5.67;4.80;;;13.70;16.10;;;;;;5072279;28;20198;-69
2022/07/07 03:12:35;;;;;;;5.70;5.20;;;13.80;16.10;;;;;;5072744;28;20182;-70
2022/07/07 03:15:00;;;;;;;6.20;5.47;;;13.80;15.80;;;;;;5071095;28;20965;-68
2022/07/07 03:17:26;;;;;;;6.30;5.90;;;13.80;15.60;;;;;;5071821;28;20524;-69
2022/07/07 03:19:52;;;;;;;5.13;4.83;;;13.80;15.60;;;;;;5071616;28;20477;-69
2022/07/07 03:22:17;;;;;;;5.60;5.30;;;13.80;15.70;;;;;;5072072;28;20188;-67
2022/07/07 03:24:43;;;;;;;6.67;6.03;;;13.90;15.60;;;;;;5072254;28;20258;-69
2022/07/07 03:27:09;;;;;;;7.07;6.67;;;14.00;15.40;;;;;;5071913;28;20194;-69
2022/07/07 03:29:35;;;;;;;5.27;4.97;;;14.10;15.10;;;;;;5071454;28;20432;-69
2022/07/07 03:32:00;;;;;;;6.60;6.20;;;14.10;15.00;;;;;;5071828;28;20205;-68
2022/07/07 03:34:26;;;;;;;6.30;6.00;;;14.10;15.20;;;;;;5071857;28;20265;-68
2022/07/07 03:36:51;;;;;;;6.70;6.30;;;14.10;14.90;;;;;;5071717;28;20185;-70
2022/07/07 03:39:17;;;;;;;6.93;6.53;;;14.00;15.00;;;;;;5071237;28;20229;-69
2022/07/07 03:41:43;;;;;;;6.67;6.37;;;14.10;15.20;;;;;;5071781;28;20260;-69
2022/07/07 03:44:08;;;;;;;6.53;6.13;;;14.10;15.10;;;;;;5071722;28;20175;-69
2022/07/07 03:46:34;;;;;;;6.57;6.20;;;14.10;15.20;;;;;;5071628;28;20652;-67
2022/07/07 03:49:00;;;;;;;6.70;6.30;;;14.10;15.10;;;;;;5070035;28;20194;-68
2022/07/07 03:51:25;;;;;;;8.20;7.70;;;14.20;14.70;;;;;;5071646;28;20661;-68
2022/07/07 03:53:51;;;;;;;6.63;6.23;;;14.30;14.70;;;;;;5070437;28;20536;-68
2022/07/07 03:56:16;;;;;;;6.57;6.13;;;14.30;14.90;;;;;;5070264;28;20545;-68
2022/07/07 03:58:42;;;;;;;6.60;6.20;;;14.20;14.90;;;;;;5069913;28;20202;-68
2022/07/07 04:01:08;;;;;;;6.70;6.30;;;14.30;15.00;;;;;;5071326;28;20883;-68
2022/07/07 04:03:33;;;;;;;5.43;5.13;;;14.30;15.30;;;;;;5071561;28;20174;-69
2022/07/07 04:05:59;;;;;;;6.17;5.77;;;14.40;15.40;;;;;;5071613;28;20171;-68
2022/07/07 04:08:25;;;;;;;6.10;5.80;;;14.40;15.40;;;;;;5071488;28;20216;-68
2022/07/07 04:10:50;;;;;;;6.57;6.17;;;14.50;15.20;;;;;;5071553;28;20645;-68
2022/07/07 04:13:16;;;;;;;6.83;6.43;;;14.60;15.10;;;;;;5071428;28;20663;-68
2022/07/07 04:15:41;;;;;;;7.30;6.80;;;14.70;14.90;;;;;;5070139;28;20231;-67
2022/07/07 04:18:07;;;;;;;7.27;6.83;;;14.80;14.40;;;;;;5071740;28;20236;-69
2022/07/07 04:20:32;;;;;;;7.13;6.63;;;14.90;14.10;;;;;;5074403;28;20678;-68
2022/07/07 04:22:58;;;;;;;7.00;6.70;;;15.00;14.00;;;;;;5074060;28;20186;-68
2022/07/07 04:25:24;;;;;;;7.63;7.10;;;15.10;14.00;;;;;;5075208;28;20175;-68
2022/07/07 04:27:49;;;;;;;8.20;7.70;;;15.10;13.80;;;;;;5075095;28;20219;-69
2022/07/07 04:30:15;;;;;;;7.53;7.13;;;15.20;13.30;;;;;;5074744;28;20588;-68
2022/07/07 04:32:41;;;;;;;8.57;7.77;;;15.30;13.30;;;;;;5075263;28;20244;-69
2022/07/07 04:35:07;;;;;;;7.70;7.30;;;15.40;13.40;;;;;;5075104;28;20190;-68
2022/07/07 04:37:33;;;;;;;8.00;7.60;;;15.30;13.30;;;;;;5074976;28;20816;-68
2022/07/07 04:39:58;;;;;;;7.93;7.53;;;15.30;13.30;;;;;;5074441;28;20537;-68
2022/07/07 04:42:24;;;;;;;8.00;7.60;;;15.10;13.20;;;;;;5074670;28;20656;-68
2022/07/07 04:44:50;;;;;;;7.87;7.47;;;15.10;13.20;;;;;;5073284;28;20185;-68
2022/07/07 04:47:16;;;;;;;8.87;8.37;;;15.20;13.30;;;;;;5074614;28;20681;-68
2022/07/07 04:49:42;;;;;;;8.53;8.13;;;15.30;13.20;;;;;;5074124;28;20422;-68
2022/07/07 04:52:07;;;;;;;8.80;8.40;;;15.40;12.80;;;;;;5074849;28;20203;-68
2022/07/07 04:54:33;;;;;;;7.63;7.30;;;15.40;12.30;;;;;;5074379;28;20664;-68
2022/07/07 04:56:58;;;;;;;8.17;7.63;;;15.30;13.30;;;;;;5074264;28;20683;-68
2022/07/07 04:59:24;;;;;;;7.53;7.03;;;14.90;14.60;;;;;;5073928;28;20590;-68
2022/07/07 05:01:49;;;;;;;7.60;7.27;;;15.10;14.50;;;;;;5074488;28;20184;-68
2022/07/07 05:04:15;;;;;;;8.30;7.90;;;15.30;14.10;;;;;;5074292;28;20178;-68
2022/07/07 05:06:41;;;;;;;7.60;7.20;;;15.40;13.90;;;;;;5074389;28;20672;-68
2022/07/07 05:09:07;;;;;;;8.67;7.87;;;15.60;14.00;;;;;;5073806;28;20543;-68
2022/07/07 05:11:32;;;;;;;9.57;8.87;;;15.70;14.20;;;;;;5074091;28;20173;-68
2022/07/07 05:13:58;;;;;;;9.90;9.30;;;15.80;14.00;;;;;;5074446;28;20548;-68
2022/07/07 05:16:24;;;;;;;9.67;8.83;;;16.00;13.50;;;;;;5074444;28;20685;-69
2022/07/07 05:18:49;;;;;;;10.67;9.63;;;16.10;12.70;;;;;;5074172;28;20205;-68
2022/07/07 05:21:15;;;;;;;11.40;10.60;;;16.20;12.50;;;;;;5074594;28;20205;-67
2022/07/07 05:23:40;;;;;;;9.80;9.30;;;16.40;12.10;;;;;;5074353;28;20188;-68
2022/07/07 05:26:06;;;;;;;9.47;9.07;;;16.30;12.10;;;;;;5074805;28;20304;-69
2022/07/07 05:28:32;;;;;;;10.77;9.90;;;16.30;12.10;;;;;;5074341;28;20247;-69
2022/07/07 05:30:57;;;;;;;9.97;9.47;;;16.40;12.40;;;;;;5073372;28;20189;-69
2022/07/07 05:33:23;;;;;;;9.80;9.23;;;16.90;11.80;;;;;;5074088;28;20181;-68
2022/07/07 05:35:48;;;;;;;10.87;10.27;;;17.40;11.10;;;;;;5074188;28;20661;-68
2022/07/07 05:38:14;;;;;;;11.10;10.60;;;17.90;10.10;;;;;;5073858;28;20240;-68
2022/07/07 05:40:40;;;;;;;12.53;12.03;;;18.20;9.60;;;;;;5073768;28;20573;-68
2022/07/07 05:43:05;;;;;;;12.30;11.80;;;18.50;9.20;;;;;;5072488;28;20182;-68
2022/07/07 05:45:31;;;;;;;13.13;12.40;;;19.30;9.50;;;;;;5072691;28;20275;-68
2022/07/07 05:47:57;;;;;;;13.13;12.63;;;20.90;7.80;;;;;;5073986;28;20193;-68
2022/07/07 05:50:22;;;;;;;14.33;13.73;;;21.70;5.00;;;;;;5073918;28;20412;-68
2022/07/07 05:52:48;;;;;;;14.47;13.67;;;21.70;4.10;;;;;;5073878;28;20193;-68
2022/07/07 05:55:13;;;;;;;14.00;13.40;;;21.50;4.00;;;;;;5073483;28;20224;-68
2022/07/07 05:57:39;;;;;;;13.67;12.93;;;21.20;4.20;;;;;;5073619;28;20225;-68
2022/07/07 06:00:06;;;;;;;13.10;12.50;;;21.00;4.50;;;;;;5072970;28;20570;-68
2022/07/07 06:02:32;;;;;;;15.50;14.20;;;21.00;4.50;;;;;;5072112;28;20178;-68
2022/07/07 06:04:57;;;;;;;14.47;13.57;;;21.00;4.70;;;;;;5073377;28;20904;-68
2022/07/07 06:07:23;;;;;;;14.37;13.77;;;21.20;4.50;;;;;;5073350;28;20205;-68
2022/07/07 06:09:49;;;;;;;14.93;14.30;;;21.50;4.70;;;;;;5073157;28;20287;-69
2022/07/07 06:12:14;;;;;;;14.73;14.13;;;22.00;3.40;;;;;;5073941;28;20174;-68
2022/07/07 06:14:40;;;;;;;14.40;13.70;;;22.40;3.30;;;;;;5074191;28;20239;-68
2022/07/07 06:17:05;;;;;;;14.77;14.23;;;22.80;1.90;;;;;;5071922;28;20186;-68
2022/07/07 06:19:31;;;;;;;15.53;14.93;;;23.00;1.80;;;;;;5071786;28;20626;-68
2022/07/07 06:21:56;;;;;;;16.17;14.97;;;23.20;1.30;;;;;;5073361;28;20174;-68
2022/07/07 06:24:22;;;;;;;14.50;14.00;;;23.30;1.10;;;;;;5072078;28;20209;-68
2022/07/07 06:26:48;;;;;;;14.93;14.23;;;23.00;1.00;;;;;;5072989;28;20235;-69
2022/07/07 06:29:13;;;;;;;15.20;14.60;;;22.90;1.10;;;;;;5072758;28;20550;-69
2022/07/07 06:31:39;;;;;;;16.00;15.30;;;22.90;1.20;;;;;;5071595;28;20264;-68
2022/07/07 06:34:05;;;;;;;15.57;14.87;;;22.90;1.20;;;;;;5072934;28;20177;-68
2022/07/07 06:36:31;;;;;;;15.40;14.57;;;;;;;;;;5073005;28;20177;-68
2022/07/07 06:38:57;;;;;;;14.87;14.27;;;23.50;1.00;;;;;;5072322;28;20634;-68
2022/07/07 06:41:23;;;;;;;15.07;14.47;;;23.40;1.00;;;;;;5072522;28;20884;-69
2022/07/07 06:43:49;;;;;;;14.17;13.57;;;23.00;1.00;;;;;;5072232;28;20253;-69
2022/07/07 06:46:15;;;;;;;14.40;13.70;;;22.70;1.00;;;;;;5072475;28;20789;-69
2022/07/07 06:48:41;;;;;;;14.50;14.00;;;;;;;;;;5070711;28;20436;-69
2022/07/07 06:51:06;;;;;;;15.60;14.53;;;23.90;1.00;;;;;;5071175;28;20280;-69
2022/07/07 06:53:32;;;;;;;14.70;14.20;;;24.90;1.00;;;;;;5072205;28;20781;-69
2022/07/07 06:55:58;;;;;;;15.77;15.07;;;25.60;1.00;;;;;;5072434;28;20193;-70
2022/07/07 06:58:23;;;;;;;15.60;14.80;;;26.30;1.00;;;;;;5071937;28;20277;-69
2022/07/07 07:00:49;;;;;;;15.07;14.47;;;26.90;1.00;;;;;;5072069;28;20204;-69
2022/07/07 07:03:15;;;;;;;16.97;15.67;;;27.40;1.00;;;;;;5072389;28;20186;-69
2022/07/07 07:05:40;;;;;;;15.70;15.00;;;27.60;1.00;;;;;;5071986;28;20664;-69
2022/07/07 07:08:06;;;;;;;15.50;14.90;;;27.80;1.00;;;;;;5071527;28;20565;-69
2022/07/07 07:10:31;;;;;;;15.43;14.63;;;28.00;1.00;;;;;;5071984;28;20178;-68
2022/07/07 07:12:57;;;;;;;16.77;15.90;;;28.60;1.00;;;;;;5072083;28;20186;-69
2022/07/07 07:15:23;;;;;;;15.93;15.23;;;;;;;;;;5072108;28;20228;-69
2022/07/07 07:17:48;;;;;;;19.10;17.10;;;29.50;1.00;;;;;;5071984;28;20197;-69
2022/07/07 07:20:14;;;;;;;16.00;15.30;;;29.80;1.00;;;;;;5071576;28;20978;-70
2022/07/07 07:22:41;;;;;;;16.73;16.03;;;29.90;1.00;;;;;;5071964;28;20209;-70
2022/07/07 07:25:07;;;;;;;16.90;15.87;;;30.20;1.00;;;;;;5071915;28;20182;-70
2022/07/07 07:27:34;;;;;;;16.73;16.03;;;31.70;1.00;;;;;;5071662;28;20432;-70
2022/07/07 07:30:00;;;;;;;16.17;15.47;;;32.10;1.00;;;;;;5071498;28;20412;-68
2022/07/07 07:32:26;;;;;;;16.20;15.60;;;31.60;1.00;;;;;;5071873;28;20420;-69
2022/07/07 07:34:52;;;;;;;16.70;16.00;;;31.50;1.00;;;;;;5071821;28;20423;-69
2022/07/07 07:37:17;;;;;;;16.17;15.57;;;31.10;1.00;;;;;;5071706;28;20202;-69
2022/07/07 07:39:43;;;;;;;16.20;15.50;;;30.50;1.00;;;;;;5071210;28;20664;-69
2022/07/07 07:42:09;;;;;;;15.93;14.83;;;30.70;1.00;;;;;;5072074;28;20773;-69
2022/07/07 07:47:18;;;;;;;16.57;15.80;;;29.80;1.00;;;;;;5071623;28;20721;-69
2022/07/07 07:49:44;;;;;;;16.70;16.00;;;29.20;1.00;;;;;;5071172;28;20415;-69
2022/07/07 07:52:10;;;;;;;16.47;15.77;;;28.70;1.00;;;;;;5071656;28;20184;-68
2022/07/07 07:54:36;;;;;;;15.80;15.20;;;28.30;1.00;;;;;;5073105;28;20261;-68
2022/07/07 07:57:02;;;;;;;15.50;14.90;;;27.40;1.00;;;;;;5076307;28;20234;-68
2022/07/07 07:59:27;;;;;;;16.10;15.20;;;27.10;1.00;;;;;;5075413;28;20209;-69
2022/07/07 08:01:53;;;;;;;15.80;15.10;;;26.70;1.00;;;;;;5075605;28;20671;-68
2022/07/07 08:04:18;;;;;;;15.07;14.40;;;26.50;1.00;;;;;;5074307;28;20170;-68
2022/07/07 08:06:44;;;;;;;16.00;15.40;;;26.40;1.00;;;;;;5075503;28;20653;-68
2022/07/07 08:09:10;;;;;;;15.60;15.00;;;26.30;1.00;;;;;;5074920;28;20288;-68
2022/07/07 08:11:35;;;;;;;15.33;14.70;;;25.70;1.00;;;;;;5075386;28;20165;-68
2022/07/07 08:14:01;;;;;;;15.90;15.30;;;25.50;1.00;;;;;;5075254;28;20936;-68
2022/07/07 08:16:27;;;;;;;16.23;15.23;;;24.70;1.00;;;;;;5075346;28;20208;-68
2022/07/07 08:18:52;;;;;;;15.80;15.10;;;24.70;1.00;;;;;;5074839;28;20217;-68
2022/07/07 08:21:18;;;;;;;14.67;13.87;;;24.70;1.00;;;;;;5073801;28;20210;-69
2022/07/07 08:23:44;;;;;;;15.77;14.73;;;24.80;1.00;;;;;;5075223;28;20610;-69
2022/07/07 08:26:10;;;;;;;15.80;15.10;;;24.90;1.00;;;;;;5075079;28;20500;-69
2022/07/07 08:28:35;;;;;;;14.73;14.13;;;25.10;1.00;;;;;;5074702;28;20209;-68
2022/07/07 08:31:01;;;;;;;15.27;14.47;;;25.30;1.00;;;;;;5075017;28;20218;-68
2022/07/07 08:33:26;;;;;;;14.50;14.00;;;25.40;1.00;;;;;;5074964;28;20182;-68
2022/07/07 08:35:52;;;;;;;15.30;14.60;;;25.30;1.00;;;;;;5074897;28;20178;-69
2022/07/07 08:38:17;;;;;;;14.30;13.80;;;25.10;1.00;;;;;;5074351;28;20288;-69
2022/07/07 08:40:43;;;;;;;15.47;14.43;;;24.90;1.00;;;;;;5074801;28;20619;-70
2022/07/07 08:43:09;;;;;;;14.77;14.13;;;24.80;1.00;;;;;;5073821;28;20223;-69
2022/07/07 08:45:34;;;;;;;14.50;13.80;;;24.60;1.00;;;;;;5074819;28;20562;-68
2022/07/07 08:48:00;;;;;;;15.27;14.57;;;24.40;1.00;;;;;;5074427;28;20198;-69
2022/07/07 08:50:26;;;;;;;16.20;15.20;;;24.40;1.00;;;;;;5074765;28;20185;-68
2022/07/07 08:52:54;;;;;;;14.70;14.00;;;24.60;1.00;;;;;;5074429;28;20228;-69
2022/07/07 08:55:23;;;;;;;15.07;14.07;;;24.70;1.00;;;;;;5074762;28;20419;-70
2022/07/07 08:57:51;;;;;;;18.57;16.80;;;25.20;1.00;;;;;;5073263;28;20436;-68
2022/07/07 09:00:17;;;;;;;17.80;16.40;;;25.40;1.00;;;;;;5074260;28;20448;-68
2022/07/07 09:02:43;;;;;;;15.17;14.47;;;25.90;1.00;;;;;;5074482;28;20423;-68
2022/07/07 09:05:09;;;;;;;15.87;15.17;;;26.10;1.00;;;;;;5074176;28;20443;-68
2022/07/07 09:07:49;;;;;;;15.60;15.00;;;26.20;1.00;;;;;;5074188;28;20486;-68
2022/07/07 09:10:32;;;;;;;15.03;14.33;;;26.20;1.00;;;;;;5074085;28;20253;-68
2022/07/07 09:12:59;;;;;;;18.17;17.07;;;26.00;1.00;;;;;;5074314;28;20790;-70
2022/07/07 09:15:24;;;;;;;15.57;14.87;;;25.70;1.00;;;;;;5074271;28;20419;-68
2022/07/07 09:17:50;;;;;;;15.40;14.80;;;25.40;1.00;;;;;;5074635;28;20432;-68
2022/07/07 09:20:16;;;;;;;15.73;15.03;;;25.10;1.00;;;;;;5073705;28;20812;-68
2022/07/07 09:22:48;;;;;;;14.70;14.00;;;24.70;1.00;;;;;;5074150;28;20396;-69
2022/07/07 09:25:16;;;;;;;15.63;14.83;;;24.50;1.00;;;;;;5074069;28;21052;-68
2022/07/07 09:27:54;;;;;;;15.00;14.37;;;24.40;1.00;;;;;;5073935;28;20428;-68
2022/07/07 09:30:38;;;;;;;15.57;14.87;;;24.30;1.00;;;;;;5073634;28;20423;-68
2022/07/07 09:33:05;;;;;;;14.73;13.83;;;24.50;1.00;;;;;;5073817;28;20495;-69
2022/07/07 09:38:18;;;;;;;15.57;14.70;;;25.30;1.00;;;;;;5073853;28;20439;-69
2022/07/07 09:41:12;;;;;;;14.67;13.97;;;25.70;1.00;;;;;;5073569;28;20508;-69
2022/07/07 09:43:51;;;;;;;16.37;14.97;;;25.70;1.00;;;;;;5073939;28;20396;-69
2022/07/07 09:46:26;;;;;;;15.60;15.00;;;25.70;1.00;;;;;;5073759;28;20439;-69
2022/07/07 09:48:53;;;;;;;15.40;14.70;;;25.40;1.00;;;;;;5073291;28;20422;-69
2022/07/07 09:51:30;;;;;;;15.60;15.00;;;25.30;1.00;;;;;;5073626;28;20918;-69
2022/07/07 09:54:06;;;;;;;16.57;15.60;;;25.10;1.00;;;;;;5073588;28;20453;-69
2022/07/07 09:56:31;;;;;;;15.10;14.50;;;25.00;1.00;;;;;;5073601;28;20477;-69
2022/07/07 09:58:58;;;;;;;15.27;14.57;;;24.90;1.00;;;;;;5072981;28;20432;-69
2022/07/07 10:01:29;;;;;;;14.17;13.67;;;24.90;1.00;;;;;;5073262;28;20198;-69
2022/07/07 10:03:58;;;;;;;14.20;13.67;;;25.00;1.00;;;;;;5073370;28;20942;-69
2022/07/07 10:06:26;;;;;;;13.33;12.77;;;24.50;1.00;;;;;;5073461;28;20412;-69
2022/07/07 10:09:00;;;;;;;14.10;13.40;;;24.40;1.00;;;;;;5073422;28;20494;-70
2022/07/07 10:11:35;;;;;;;14.00;13.40;;;24.40;1.00;;;;;;5073388;28;20490;-69
2022/07/07 10:14:10;;;;;;;14.07;13.37;;;24.20;1.00;;;;;;5073159;28;20439;-70
2022/07/07 10:16:38;;;;;;;13.90;13.40;;;24.00;1.00;;;;;;5073503;28;20392;-69
2022/07/07 10:19:05;;;;;;;14.83;14.20;;;23.50;1.00;;;;;;5072796;28;20451;-69
2022/07/07 10:21:31;;;;;;;15.50;14.57;;;23.40;1.00;;;;;;5071577;28;20460;-68
2022/07/07 10:23:57;;;;;;;15.33;14.40;;;23.30;1.00;;;;;;5072772;28;20416;-69
2022/07/07 10:26:43;;;;;;;14.47;13.97;;;23.40;1.00;;;;;;5072810;28;20785;-69
2022/07/07 10:29:10;;;;;;;15.23;14.63;;;23.60;1.00;;;;;;5072393;28;20204;-69
2022/07/07 10:31:37;;;;;;;14.47;13.87;;;23.80;1.00;;;;;;5072738;28;20785;-69
2022/07/07 10:34:08;;;;;;;15.00;14.30;;;24.00;1.00;;;;;;5072447;28;20451;-69
2022/07/07 10:36:49;;;;;;;15.67;15.07;;;24.00;1.00;;;;;;5072560;28;20473;-70
2022/07/07 10:39:15;;;;;;;15.00;14.40;;;24.00;1.00;;;;;;5072259;28;20410;-70
2022/07/07 10:41:53;;;;;;;14.97;14.27;;;23.90;1.00;;;;;;5072522;28;20915;-70
2022/07/07 10:44:20;;;;;;;15.20;14.50;;;23.80;1.00;;;;;;5071245;28;20420;-69
2022/07/07 10:47:24;;;;;;;15.20;14.60;;;23.80;1.00;;;;;;5072474;28;20902;-70
2022/07/07 10:49:54;;;;;;;14.67;14.07;;;23.80;1.00;;;;;;5071839;28;20455;-70
2022/07/07 10:52:41;;;;;;;15.03;14.43;;;23.60;1.00;;;;;;5072208;28;20950;-70
2022/07/07 10:55:07;;;;;;;15.77;15.07;;;23.80;1.00;;;;;;5072186;28;20522;-71
2022/07/07 10:57:41;;;;;;;15.20;14.60;;;23.90;1.00;;;;;;5072162;28;20648;-70
2022/07/07 11:00:11;;;;;;;15.57;14.97;;;23.80;1.00;;;;;;5071885;28;20802;-71
2022/07/07 11:02:51;;;;;;;15.77;15.17;;;23.90;1.00;;;;;;5070828;28;20424;-70
2022/07/07 11:05:16;;;;;;;15.50;14.70;;;24.10;1.10;;;;;;5072054;28;20690;-69
2022/07/07 11:08:06;;;;;;;15.77;15.07;;;24.40;1.10;;;;;;5071744;28;20471;-70
2022/07/07 11:10:52;;;;;;;15.20;14.60;;;24.60;1.00;;;;;;5071869;28;20174;-69
2022/07/07 11:13:20;;;;;;;15.63;14.97;;;25.00;1.00;;;;;;5071998;28;20631;-71
2022/07/07 11:15:49;;;;;;;16.50;15.60;;;25.50;1.00;;;;;;5070604;28;20417;-70
2022/07/07 11:18:17;;;;;;;15.63;14.73;;;25.20;1.00;;;;;;5071308;28;20435;-70
2022/07/07 11:20:58;;;;;;;15.43;14.83;;;25.30;1.00;;;;;;5071819;28;20459;-70
2022/07/07 11:23:27;;;;;;;15.80;15.10;;;24.90;1.00;;;;;;5071967;28;20400;-70
2022/07/07 11:25:57;;;;;;;16.13;15.37;;;25.10;1.00;;;;;;5071716;28;20404;-70
2022/07/07 11:28:24;;;;;;;15.57;14.77;;;25.30;1.00;;;;;;5070958;28;20845;-69
2022/07/07 11:31:00;;;;;;;15.10;14.50;;;25.40;1.00;;;;;;5071494;28;20537;-69
2022/07/07 11:33:26;;;;;;;15.53;14.63;;;24.90;1.00;;;;;;5071799;28;20801;-70
2022/07/07 11:35:51;;;;;;;15.00;14.30;;;24.80;1.00;;;;;;5071773;28;20415;-70
2022/07/07 11:38:17;;;;;;;16.00;15.20;;;24.70;1.00;;;;;;5071469;28;20205;-69
2022/07/07 11:40:42;;;;;;;15.50;14.50;;;24.70;1.00;;;;;;5070353;28;20233;-70
2022/07/07 11:43:28;;;;;;;14.83;14.13;;;24.60;1.00;;;;;;5071599;28;20170;-70
2022/07/07 11:45:54;;;;;;;13.90;13.40;;;24.50;1.00;;;;;;5071238;28;20185;-69
2022/07/07 11:48:21;;;;;;;14.70;13.90;;;24.20;1.10;;;;;;5071256;28;20438;-71
2022/07/07 11:50:48;;;;;;;14.27;13.67;;;23.90;1.00;;;;;;5071616;28;20169;-69
2022/07/07 11:53:14;;;;;;;13.67;13.17;;;23.80;1.00;;;;;;5071622;28;20927;-70
2022/07/07 11:55:40;;;;;;;13.50;13.00;;;23.70;1.00;;;;;;5071806;28;20913;-70
2022/07/07 11:58:07;;;;;;;14.80;14.05;;;23.50;1.60;;;;;;5070917;28;20431;-70
2022/07/07 12:00:35;;;;;;;12.63;12.13;;;23.40;1.80;;;;;;5070221;28;20317;-70
2022/07/07 12:03:04;;;;;;;13.97;13.43;;;23.30;2.10;;;;;;5071445;28;20418;-70
2022/07/07 12:05:32;;;;;;;13.93;13.13;;;23.30;2.30;;;;;;5071548;28;20443;-71
2022/07/07 12:08:01;;;;;;;13.40;12.70;;;23.00;2.30;;;;;;5070929;28;20535;-70
2022/07/07 12:10:31;;;;;;;14.70;13.80;;;22.80;3.00;;;;;;5071532;28;20419;-69
2022/07/07 12:12:59;;;;;;;14.53;13.50;;;22.80;3.20;;;;;;5071698;28;20438;-68
2022/07/07 12:15:29;;;;;;;13.33;12.83;;;22.60;3.60;;;;;;5072490;28;20947;-69
2022/07/07 12:17:56;;;;;;;13.30;12.70;;;22.60;4.10;;;;;;5075691;28;20668;-68
2022/07/07 12:20:23;;;;;;;13.70;13.10;;;22.80;3.50;;;;;;5071605;28;20819;-70
2022/07/07 12:22:57;;;;;;;14.17;13.57;;;22.60;3.90;;;;;;5071923;28;20835;-70
2022/07/07 12:25:25;;;;;;;13.77;13.07;;;22.90;3.40;;;;;;5071202;28;20902;-70
2022/07/07 12:27:53;;;;;;;12.77;12.27;;;22.90;3.20;;;;;;5071316;28;20435;-70
2022/07/07 12:30:19;;;;;;;12.10;11.60;;;22.90;3.50;;;;;;5070963;28;20408;-70
2022/07/07 12:32:45;;;;;;;12.20;11.70;;;22.80;3.60;;;;;;5069909;28;20424;-70
2022/07/07 12:35:27;;;;;;;12.37;11.87;;;22.90;3.80;;;;;;5071334;28;20257;-69
2022/07/07 12:37:52;;;;;;;13.10;12.40;;;22.60;3.70;;;;;;5071208;28;20968;-69
2022/07/07 12:40:18;;;;;;;13.80;12.80;;;22.50;4.10;;;;;;5071754;28;20467;-70
2022/07/07 12:42:45;;;;;;;12.90;12.23;;;22.50;4.70;;;;;;5073853;28;20181;-70
2022/07/07 12:45:12;;;;;;;12.90;12.07;;;22.50;4.70;;;;;;5075257;28;20219;-69
2022/07/07 12:48:05;;;;;;;13.07;12.33;;;22.40;5.40;;;;;;5074939;28;20435;-70
2022/07/07 12:50:30;;;;;;;12.13;11.63;;;22.30;5.30;;;;;;5073334;28;20428;-69